Terminal Aerodrome Forecast
Issued by NWS

Home | Current Version | Previous Version | Graphics & Text | Print | Product List | Glossary On
Versions: 1 2 3 4 5 6 7 8 9 10 11 12 13 14
000
FTUS43 KGRB 241736
TAFAUW
TAF
KAUW 241736Z 2418/2518 29010KT P6SM SCT015 BKN025
     FM241900 29011G18KT P6SM BKN035
     FM242000 29012G19KT P6SM SCT045
     FM250200 28007KT P6SM FEW250=

USA.gov is the U.S. government's official web portal to all federal, state and local government web resources and services.